Time;durP1;ratioP1;P1;durP2;ratioP2;P2;SDS_P1;SDS_P2;PMS_P1;PMS_P2;Temp;Humidity;BMP_temperature;BMP_pressure;BME280_temperature;BME280_humidity;BME280_pressure;Samples;Min_cycle;Max_cycle;Signal;HPM_P1;HPM_P2
2024/03/31 00:00:05;;;;;;;14.88;4.00;;;10.70;99.90;;;;;;5040003;28;20215;-72
2024/03/31 00:02:31;;;;;;;7.47;2.95;;;10.70;99.90;;;;;;5040445;28;20322;-72
2024/03/31 00:04:58;;;;;;;10.57;3.42;;;10.70;99.90;;;;;;5042833;28;20227;-72
2024/03/31 00:07:24;;;;;;;6.28;3.33;;;10.60;99.90;;;;;;5044196;28;20243;-72
2024/03/31 00:09:51;;;;;;;12.02;3.03;;;10.60;99.90;;;;;;5041473;28;20223;-72
2024/03/31 00:12:17;;;;;;;5.97;2.78;;;10.60;99.90;;;;;;5041258;28;20822;-73
2024/03/31 00:14:45;;;;;;;11.25;3.63;;;10.60;99.90;;;;;;5042465;28;20243;-72
2024/03/31 00:17:13;;;;;;;15.90;4.78;;;10.70;99.90;;;;;;5042510;28;20254;-71
2024/03/31 00:19:40;;;;;;;33.10;6.65;;;10.60;99.90;;;;;;5040733;28;20222;-72
2024/03/31 00:22:06;;;;;;;25.65;7.07;;;10.50;99.90;;;;;;5042437;28;20235;-71
2024/03/31 00:24:33;;;;;;;14.73;6.15;;;10.40;99.90;;;;;;5043575;28;20241;-73
2024/03/31 00:26:59;;;;;;;15.52;4.70;;;10.30;99.90;;;;;;5034277;28;20677;-74
2024/03/31 00:29:26;;;;;;;9.88;4.20;;;10.20;99.90;;;;;;5036231;28;20301;-72
2024/03/31 00:31:52;;;;;;;8.23;4.18;;;10.20;99.90;;;;;;5039333;28;20223;-72
2024/03/31 00:34:23;;;;;;;11.82;3.92;;;10.20;99.90;;;;;;5025027;28;20234;-71
2024/03/31 00:36:49;;;;;;;6.60;3.10;;;10.30;99.90;;;;;;5021479;28;20290;-72
2024/03/31 00:39:17;;;;;;;4.65;2.65;;;10.20;99.90;;;;;;5023970;28;20350;-71
2024/03/31 00:41:43;;;;;;;12.73;3.30;;;10.30;99.90;;;;;;5033771;28;20294;-72
2024/03/31 00:44:11;;;;;;;7.03;3.40;;;10.30;99.90;;;;;;5041038;28;20222;-71
2024/03/31 00:46:36;;;;;;;10.57;3.65;;;10.30;99.90;;;;;;5042120;28;20317;-71
2024/03/31 00:49:04;;;;;;;14.77;3.75;;;10.30;99.90;;;;;;5043962;28;20244;-71
2024/03/31 00:51:31;;;;;;;10.27;3.10;;;10.20;99.90;;;;;;5036102;28;20249;-71
2024/03/31 00:53:58;;;;;;;6.93;2.55;;;10.20;99.90;;;;;;5037791;28;20887;-71
2024/03/31 00:56:24;;;;;;;5.57;2.30;;;10.30;99.90;;;;;;5039144;28;20230;-72
2024/03/31 00:58:51;;;;;;;6.40;2.28;;;10.30;99.90;;;;;;5040152;28;20240;-70
2024/03/31 01:01:18;;;;;;;16.23;3.95;;;10.50;99.90;;;;;;5043240;28;20246;-73
2024/03/31 01:03:45;;;;;;;10.25;3.40;;;10.50;99.90;;;;;;5041350;28;20359;-73
2024/03/31 01:06:14;;;;;;;6.38;3.53;;;10.50;99.90;;;;;;5041041;28;20229;-71
2024/03/31 01:08:42;;;;;;;5.78;2.70;;;10.30;99.90;;;;;;5042285;28;20364;-71
2024/03/31 01:11:09;;;;;;;8.07;3.53;;;10.20;99.90;;;;;;5042227;28;20250;-71
2024/03/31 01:13:36;;;;;;;5.60;2.78;;;10.20;99.90;;;;;;5042228;28;20257;-71
2024/03/31 01:16:03;;;;;;;3.92;2.47;;;10.20;99.90;;;;;;5038503;28;20312;-71
2024/03/31 01:18:31;;;;;;;6.75;3.03;;;10.20;99.90;;;;;;5022705;28;20223;-74
2024/03/31 01:20:57;;;;;;;3.78;2.38;;;10.20;99.90;;;;;;5037222;28;20698;-71
2024/03/31 01:23:28;;;;;;;3.97;2.40;;;10.30;99.90;;;;;;5042477;28;20235;-71
2024/03/31 01:25:57;;;;;;;204.98;11.13;;;10.30;99.90;;;;;;5040954;28;20300;-72
2024/03/31 01:28:24;;;;;;;245.18;12.27;;;10.30;99.90;;;;;;5040558;28;20243;-73
2024/03/31 01:30:50;;;;;;;10.13;3.42;;;10.20;99.90;;;;;;5039796;28;20269;-71
2024/03/31 01:33:18;;;;;;;20.73;4.28;;;10.10;99.90;;;;;;5039960;28;20215;-71
2024/03/31 01:35:43;;;;;;;5.38;2.95;;;10.00;99.90;;;;;;5039468;28;20280;-72
2024/03/31 01:38:11;;;;;;;6.13;3.10;;;10.00;99.90;;;;;;5041926;28;20246;-71
2024/03/31 01:40:37;;;;;;;24.58;5.28;;;10.10;99.90;;;;;;5041465;28;20304;-73
2024/03/31 01:43:06;;;;;;;22.20;3.72;;;10.10;99.90;;;;;;5025061;28;20247;-72
2024/03/31 01:45:32;;;;;;;5.07;2.83;;;10.10;99.90;;;;;;5038169;28;20215;-72
2024/03/31 01:47:59;;;;;;;21.33;4.28;;;10.10;99.90;;;;;;5028946;28;20276;-72
2024/03/31 01:50:25;;;;;;;3.33;2.38;;;10.10;99.90;;;;;;5021821;28;20342;-72
2024/03/31 01:52:52;;;;;;;6.47;3.13;;;10.00;99.90;;;;;;5020773;28;20680;-71
2024/03/31 01:55:18;;;;;;;3.28;2.85;;;10.00;99.90;;;;;;5022796;28;20302;-72
2024/03/31 01:57:45;;;;;;;3.67;2.88;;;10.00;99.90;;;;;;5023571;28;20310;-72
2024/03/31 02:00:13;;;;;;;3.45;2.38;;;10.00;99.90;;;;;;5026186;28;20296;-71
2024/03/31 02:02:41;;;;;;;5.15;3.17;;;10.00;99.90;;;;;;5033104;28;20222;-72
2024/03/31 02:05:07;;;;;;;3.45;2.30;;;9.90;99.90;;;;;;5039812;28;20299;-71
2024/03/31 02:07:34;;;;;;;6.32;3.08;;;9.90;99.90;;;;;;5037972;28;20227;-71
2024/03/31 02:10:00;;;;;;;2.45;2.22;;;10.00;99.90;;;;;;5042402;28;20250;-71
2024/03/31 02:12:27;;;;;;;2.58;2.20;;;10.00;99.90;;;;;;5041742;28;20221;-71
2024/03/31 02:14:52;;;;;;;3.25;2.55;;;10.00;99.90;;;;;;5040522;28;20276;-73
2024/03/31 02:17:21;;;;;;;4.70;2.20;;;10.10;99.90;;;;;;5038145;28;20215;-71
2024/03/31 02:19:48;;;;;;;2.17;1.98;;;10.10;99.90;;;;;;5040209;28;20280;-74
2024/03/31 02:22:17;;;;;;;2.95;1.85;;;10.10;99.90;;;;;;5038395;28;20334;-71
2024/03/31 02:24:44;;;;;;;6.38;2.67;;;10.10;99.90;;;;;;5036884;28;20215;-72
2024/03/31 02:27:11;;;;;;;2.67;2.47;;;10.10;99.90;;;;;;5038707;28;20237;-72
2024/03/31 02:29:37;;;;;;;3.13;2.22;;;10.10;99.90;;;;;;5041997;28;20302;-71
2024/03/31 02:32:04;;;;;;;4.50;2.67;;;10.10;99.90;;;;;;5039561;28;20243;-72
2024/03/31 02:34:33;;;;;;;5.30;2.45;;;10.00;99.90;;;;;;5053533;28;20221;-71
2024/03/31 02:36:59;;;;;;;13.27;3.00;;;10.00;99.90;;;;;;5039264;28;20246;-71
2024/03/31 02:39:27;;;;;;;4.18;2.33;;;9.90;99.90;;;;;;5038803;28;20225;-71
2024/03/31 02:41:52;;;;;;;5.65;3.03;;;9.90;99.90;;;;;;5038397;28;20229;-72
2024/03/31 02:44:20;;;;;;;9.38;3.65;;;9.90;99.90;;;;;;5039567;28;20241;-72
2024/03/31 02:46:47;;;;;;;6.45;3.08;;;9.90;99.90;;;;;;5032750;28;20668;-72
2024/03/31 02:49:14;;;;;;;5.68;2.80;;;9.80;99.90;;;;;;5042038;28;20194;-71
2024/03/31 02:51:42;;;;;;;5.53;2.90;;;9.80;99.90;;;;;;5039532;28;20700;-72
2024/03/31 02:54:09;;;;;;;2.65;2.20;;;9.70;99.90;;;;;;5040596;28;20215;-72
2024/03/31 02:56:35;;;;;;;24.25;4.00;;;9.70;99.90;;;;;;5038004;28;20304;-72
2024/03/31 02:59:03;;;;;;;23.27;3.55;;;9.70;99.90;;;;;;5038339;28;20247;-72
2024/03/31 03:01:29;;;;;;;4.80;2.47;;;9.70;99.90;;;;;;5032226;28;20250;-71
2024/03/31 03:03:56;;;;;;;3.60;2.55;;;9.70;99.90;;;;;;5034986;28;20936;-72
2024/03/31 03:06:22;;;;;;;5.03;2.38;;;9.70;99.90;;;;;;5034528;28;20891;-71
2024/03/31 03:08:50;;;;;;;4.78;2.35;;;9.70;99.90;;;;;;5037565;28;20230;-71
2024/03/31 03:11:16;;;;;;;5.22;2.28;;;9.70;99.90;;;;;;5038875;28;20896;-71
2024/03/31 03:13:44;;;;;;;5.47;3.10;;;9.80;99.90;;;;;;5026772;28;20234;-71
2024/03/31 03:16:10;;;;;;;3.00;2.13;;;9.80;99.90;;;;;;5035430;28;21378;-71
2024/03/31 03:18:37;;;;;;;4.93;2.13;;;9.90;99.90;;;;;;5038406;28;20195;-72
2024/03/31 03:21:04;;;;;;;5.20;2.60;;;9.90;99.90;;;;;;5034630;28;20242;-71
2024/03/31 03:23:31;;;;;;;2.28;2.08;;;9.90;99.90;;;;;;5033498;28;20333;-72
2024/03/31 03:25:59;;;;;;;8.25;3.05;;;9.90;99.90;;;;;;5032016;28;20227;-71
2024/03/31 03:28:27;;;;;;;9.60;3.25;;;9.90;99.90;;;;;;5021597;28;20224;-71
2024/03/31 03:30:53;;;;;;;5.43;2.58;;;9.80;99.90;;;;;;5018318;28;20211;-73
2024/03/31 03:33:20;;;;;;;5.07;2.78;;;9.80;99.90;;;;;;5035943;28;20215;-72
2024/03/31 03:35:46;;;;;;;3.75;2.58;;;9.80;99.90;;;;;;5040127;28;20235;-74
2024/03/31 03:38:14;;;;;;;3.40;2.53;;;9.80;99.90;;;;;;5033942;28;20225;-72
2024/03/31 03:40:42;;;;;;;8.52;2.80;;;9.80;99.90;;;;;;5037046;28;20242;-71
2024/03/31 03:43:10;;;;;;;7.00;2.58;;;9.80;99.90;;;;;;5023653;28;21115;-73
2024/03/31 03:45:37;;;;;;;7.68;3.05;;;9.80;99.90;;;;;;5019992;28;20669;-72
2024/03/31 03:48:04;;;;;;;3.03;2.28;;;9.80;99.90;;;;;;5024548;28;20243;-71
2024/03/31 03:50:31;;;;;;;4.00;2.45;;;9.80;99.90;;;;;;5019812;28;20289;-72
2024/03/31 03:52:57;;;;;;;4.22;2.58;;;9.80;99.90;;;;;;5023716;28;20255;-71
2024/03/31 03:55:24;;;;;;;3.00;2.10;;;9.80;99.90;;;;;;5020131;28;20302;-72
2024/03/31 03:57:50;;;;;;;3.25;2.25;;;9.80;99.90;;;;;;5035558;28;20632;-72
2024/03/31 04:00:18;;;;;;;2.63;2.10;;;9.80;99.90;;;;;;5033092;28;20331;-74
2024/03/31 04:02:44;;;;;;;3.70;2.28;;;9.90;99.90;;;;;;5039786;28;20832;-71
2024/03/31 04:05:11;;;;;;;2.42;1.67;;;9.90;99.90;;;;;;5039203;28;20376;-72
2024/03/31 04:07:37;;;;;;;2.72;2.00;;;9.90;99.90;;;;;;5037446;28;20254;-71
2024/03/31 04:10:05;;;;;;;3.95;2.40;;;9.90;99.90;;;;;;5037348;28;20336;-71
2024/03/31 04:12:31;;;;;;;3.28;2.35;;;10.00;99.90;;;;;;5041632;28;20240;-71
2024/03/31 04:14:59;;;;;;;2.05;1.85;;;10.00;99.90;;;;;;5042397;28;20218;-72
2024/03/31 04:17:26;;;;;;;4.50;1.98;;;10.00;99.90;;;;;;5039154;28;20724;-72
2024/03/31 04:19:53;;;;;;;1.98;1.88;;;10.00;99.90;;;;;;5035973;28;20258;-71
2024/03/31 04:22:20;;;;;;;3.53;1.83;;;10.00;99.90;;;;;;5043324;28;20272;-71
2024/03/31 04:24:47;;;;;;;4.18;2.25;;;10.00;99.90;;;;;;5041152;28;20199;-71
2024/03/31 04:27:13;;;;;;;3.83;2.17;;;10.10;99.90;;;;;;5041745;28;20781;-72
2024/03/31 04:29:40;;;;;;;8.20;2.45;;;10.10;99.90;;;;;;5041070;28;20254;-73
2024/03/31 04:32:06;;;;;;;2.50;2.30;;;10.10;99.90;;;;;;5042104;28;20218;-71
2024/03/31 04:34:35;;;;;;;5.85;3.05;;;10.10;99.90;;;;;;5042522;28;20223;-72
2024/03/31 04:37:01;;;;;;;4.95;1.98;;;10.10;99.90;;;;;;5040375;28;20250;-71
2024/03/31 04:39:28;;;;;;;5.35;2.67;;;10.10;99.90;;;;;;5042826;28;20202;-72
2024/03/31 04:41:54;;;;;;;2.63;2.10;;;10.10;99.90;;;;;;5034408;28;20251;-73
2024/03/31 04:44:21;;;;;;;3.95;1.90;;;10.10;99.90;;;;;;5037618;28;20317;-71
2024/03/31 04:46:49;;;;;;;4.15;2.33;;;10.10;99.90;;;;;;5040810;28;20232;-71
2024/03/31 04:49:16;;;;;;;2.22;2.03;;;10.10;99.90;;;;;;5043001;28;20724;-71
2024/03/31 04:51:44;;;;;;;2.35;2.15;;;10.20;99.90;;;;;;5041689;28;20259;-71
2024/03/31 04:54:11;;;;;;;3.20;2.00;;;10.10;99.90;;;;;;5042601;28;20736;-72
2024/03/31 04:56:37;;;;;;;3.63;2.03;;;10.10;99.90;;;;;;5038448;28;20227;-71
2024/03/31 04:59:04;;;;;;;2.30;2.00;;;10.20;99.90;;;;;;5044311;28;20214;-72
2024/03/31 05:01:30;;;;;;;2.90;2.33;;;10.20;99.90;;;;;;5041105;28;20385;-71
2024/03/31 05:03:57;;;;;;;2.72;2.35;;;10.20;99.90;;;;;;5041553;28;20230;-73
2024/03/31 05:06:23;;;;;;;3.17;1.95;;;10.20;99.90;;;;;;5040655;28;20281;-71
2024/03/31 05:08:51;;;;;;;2.33;1.95;;;10.20;99.90;;;;;;5043522;28;20301;-72
2024/03/31 05:11:17;;;;;;;2.45;1.95;;;10.20;99.90;;;;;;5041903;28;20226;-73
2024/03/31 05:13:44;;;;;;;2.55;1.90;;;10.20;99.90;;;;;;5039008;28;20219;-72
2024/03/31 05:16:10;;;;;;;3.38;2.10;;;10.20;99.90;;;;;;5040905;28;20258;-72
2024/03/31 05:18:38;;;;;;;2.45;1.80;;;10.20;99.90;;;;;;5042186;28;20201;-71
2024/03/31 05:21:05;;;;;;;6.10;2.33;;;10.30;99.90;;;;;;5039199;28;20250;-71
2024/03/31 05:23:33;;;;;;;14.18;3.72;;;10.20;99.90;;;;;;5041662;28;20305;-71
2024/03/31 05:26:01;;;;;;;2.58;1.95;;;10.10;99.90;;;;;;5039940;28;20296;-72
2024/03/31 05:28:28;;;;;;;4.78;2.63;;;10.00;99.90;;;;;;5023392;28;20233;-72
2024/03/31 05:30:55;;;;;;;4.20;2.42;;;9.90;99.90;;;;;;5042403;28;20231;-72
2024/03/31 05:33:22;;;;;;;2.88;2.35;;;9.90;99.90;;;;;;5020698;28;20280;-71
2024/03/31 05:35:48;;;;;;;2.92;2.60;;;9.90;99.90;;;;;;5041176;28;20369;-71
2024/03/31 05:38:17;;;;;;;3.78;2.53;;;9.90;99.90;;;;;;5039522;28;20214;-71
2024/03/31 05:40:44;;;;;;;4.50;3.33;;;10.00;99.90;;;;;;5038124;28;20311;-71
2024/03/31 05:43:13;;;;;;;2.97;2.55;;;10.00;99.90;;;;;;5038414;28;20211;-71
2024/03/31 05:45:40;;;;;;;2.50;2.30;;;10.00;99.90;;;;;;5043087;28;20305;-71
2024/03/31 05:48:09;;;;;;;3.50;2.28;;;10.00;99.90;;;;;;5041802;28;20219;-71
2024/03/31 05:50:36;;;;;;;2.75;2.55;;;10.00;99.90;;;;;;5041136;28;20246;-71
2024/03/31 05:53:03;;;;;;;2.78;2.53;;;10.10;99.90;;;;;;5024815;28;20219;-71
2024/03/31 05:55:29;;;;;;;4.53;2.70;;;10.10;99.90;;;;;;5021129;28;20294;-71
2024/03/31 05:57:56;;;;;;;4.80;2.88;;;10.10;99.90;;;;;;5035466;28;20663;-71
2024/03/31 06:00:25;;;;;;;5.38;2.80;;;10.00;99.90;;;;;;5038392;28;20286;-72
2024/03/31 06:02:52;;;;;;;3.00;2.70;;;10.00;99.90;;;;;;5038291;28;20242;-71
2024/03/31 06:05:18;;;;;;;3.38;2.40;;;10.00;99.90;;;;;;5037995;28;20250;-73
2024/03/31 06:07:48;;;;;;;7.72;2.92;;;10.00;99.90;;;;;;5038285;28;20597;-73
2024/03/31 06:10:14;;;;;;;5.22;2.72;;;10.00;99.90;;;;;;5035460;28;20545;-71
2024/03/31 06:12:41;;;;;;;6.00;2.88;;;10.00;99.90;;;;;;5038334;28;20207;-70
2024/03/31 06:15:08;;;;;;;4.60;2.55;;;10.10;99.90;;;;;;5038421;28;20358;-71
2024/03/31 06:17:39;;;;;;;3.08;2.83;;;10.10;99.90;;;;;;5037614;28;20733;-71
2024/03/31 06:20:07;;;;;;;2.90;2.33;;;10.10;99.90;;;;;;5034812;28;20223;-71
2024/03/31 06:22:34;;;;;;;4.03;2.22;;;10.10;99.90;;;;;;5038592;28;20345;-71
2024/03/31 06:25:00;;;;;;;3.35;2.20;;;10.10;99.90;;;;;;5039846;28;20287;-70
2024/03/31 06:27:27;;;;;;;2.50;2.30;;;10.10;99.90;;;;;;5037516;28;20310;-71
2024/03/31 06:29:53;;;;;;;4.25;2.83;;;10.20;99.90;;;;;;5039823;28;20251;-71
2024/03/31 06:32:20;;;;;;;3.22;2.47;;;10.20;99.90;;;;;;5040618;28;20373;-71
2024/03/31 06:34:51;;;;;;;6.03;3.17;;;10.20;99.90;;;;;;5040065;28;20324;-71
2024/03/31 06:37:18;;;;;;;5.40;2.65;;;10.20;99.90;;;;;;5039390;28;20223;-71
2024/03/31 06:39:44;;;;;;;3.90;2.70;;;10.20;99.90;;;;;;5042751;28;20197;-71
2024/03/31 06:42:12;;;;;;;2.47;2.10;;;10.30;99.90;;;;;;5038504;28;20211;-71
2024/03/31 06:44:38;;;;;;;2.78;2.47;;;10.20;99.90;;;;;;5040569;28;20337;-71
2024/03/31 06:47:05;;;;;;;5.07;3.13;;;10.20;99.90;;;;;;5040602;28;20309;-72
2024/03/31 06:49:31;;;;;;;2.97;2.38;;;10.20;99.90;;;;;;5042027;28;20797;-71
2024/03/31 06:52:00;;;;;;;3.40;2.25;;;10.20;99.90;;;;;;5039877;28;20250;-72
2024/03/31 06:54:26;;;;;;;3.83;2.42;;;10.20;99.90;;;;;;5039005;28;20213;-73
2024/03/31 06:56:53;;;;;;;4.57;2.60;;;10.20;99.90;;;;;;5034233;28;20227;-71
2024/03/31 06:59:19;;;;;;;2.60;2.40;;;10.20;99.90;;;;;;5025343;28;20842;-71
2024/03/31 07:01:46;;;;;;;2.38;2.17;;;10.30;99.90;;;;;;5023592;28;20235;-72
2024/03/31 07:04:13;;;;;;;4.15;2.10;;;10.30;99.90;;;;;;5025806;28;20681;-71
2024/03/31 07:06:40;;;;;;;2.85;2.25;;;10.40;99.90;;;;;;5032888;28;20224;-71
2024/03/31 07:09:08;;;;;;;2.67;2.00;;;10.50;99.90;;;;;;5041744;28;20222;-71
2024/03/31 07:11:35;;;;;;;2.90;2.00;;;10.50;99.90;;;;;;5033077;28;20372;-74
2024/03/31 07:14:01;;;;;;;2.03;1.83;;;10.60;99.90;;;;;;5039336;28;20716;-72
2024/03/31 07:16:28;;;;;;;3.03;1.80;;;10.70;99.90;;;;;;5037410;28;20321;-72
2024/03/31 07:18:54;;;;;;;2.72;2.30;;;10.90;99.90;;;;;;5039970;28;20753;-72
2024/03/31 07:21:21;;;;;;;4.82;1.90;;;11.00;99.90;;;;;;5036623;28;20298;-72
2024/03/31 07:23:47;;;;;;;5.28;3.03;;;11.20;99.90;;;;;;5034109;28;20251;-72
2024/03/31 07:26:15;;;;;;;4.68;2.92;;;11.30;99.90;;;;;;5030662;28;20238;-71
2024/03/31 07:28:41;;;;;;;5.82;3.95;;;11.40;99.90;;;;;;5034610;28;20235;-73
2024/03/31 07:31:08;;;;;;;4.97;3.97;;;11.50;99.90;;;;;;5033831;28;20203;-72
2024/03/31 07:33:35;;;;;;;4.18;2.97;;;11.40;99.90;;;;;;5036292;28;21122;-72
2024/03/31 07:36:02;;;;;;;6.82;3.88;;;11.30;99.90;;;;;;5018122;28;20759;-73
2024/03/31 07:38:28;;;;;;;5.10;3.58;;;11.20;99.90;;;;;;5030656;28;21011;-74
2024/03/31 07:40:54;;;;;;;6.25;4.05;;;11.10;99.90;;;;;;5034820;28;20302;-73
2024/03/31 07:43:23;;;;;;;8.80;4.45;;;11.00;99.90;;;;;;5016687;28;20248;-72
2024/03/31 07:45:51;;;;;;;4.00;3.25;;;10.80;99.90;;;;;;5021228;28;20717;-72
2024/03/31 07:48:17;;;;;;;4.55;3.33;;;10.80;99.90;;;;;;5023509;28;20251;-72
2024/03/31 07:50:44;;;;;;;3.50;3.20;;;10.70;99.90;;;;;;5021982;28;20485;-71
2024/03/31 07:53:10;;;;;;;3.20;2.85;;;10.60;99.90;;;;;;5019669;28;20278;-72
2024/03/31 07:55:37;;;;;;;3.78;2.70;;;10.50;99.90;;;;;;5023017;28;20269;-74
2024/03/31 07:58:05;;;;;;;5.15;3.10;;;10.40;99.90;;;;;;5023620;28;20259;-73
2024/03/31 08:00:34;;;;;;;6.03;2.53;;;10.30;99.90;;;;;;5024779;28;20196;-73
2024/03/31 08:03:00;;;;;;;3.13;2.50;;;10.20;99.90;;;;;;5033874;28;20763;-75
2024/03/31 08:05:27;;;;;;;2.45;2.25;;;10.20;99.90;;;;;;5040212;28;20219;-73
2024/03/31 08:07:53;;;;;;;3.38;3.08;;;10.30;99.90;;;;;;5031593;28;20727;-73
2024/03/31 08:10:20;;;;;;;6.28;3.10;;;10.30;99.90;;;;;;5038717;28;21213;-74
2024/03/31 08:12:46;;;;;;;3.38;2.72;;;10.40;99.90;;;;;;5040059;28;20249;-75
2024/03/31 08:15:13;;;;;;;5.43;3.35;;;10.50;99.90;;;;;;5040479;28;20686;-73
2024/03/31 08:17:40;;;;;;;6.13;3.15;;;10.40;99.90;;;;;;5032732;28;20243;-73
2024/03/31 08:20:08;;;;;;;7.13;3.30;;;10.30;99.90;;;;;;5039646;28;20243;-75
2024/03/31 08:22:34;;;;;;;5.95;4.25;;;10.20;99.90;;;;;;5037634;28;20231;-74
2024/03/31 08:25:01;;;;;;;4.65;4.25;;;10.10;99.90;;;;;;5035490;28;20214;-75
2024/03/31 08:27:27;;;;;;;3.65;3.40;;;10.10;99.90;;;;;;5033975;28;20251;-75
2024/03/31 08:29:55;;;;;;;5.93;3.03;;;10.10;99.90;;;;;;5039490;28;20302;-73
2024/03/31 08:32:21;;;;;;;5.65;3.80;;;10.20;99.90;;;;;;5034474;28;20219;-73
2024/03/31 08:34:50;;;;;;;5.93;4.03;;;10.20;99.90;;;;;;5040367;28;20751;-73
2024/03/31 08:37:16;;;;;;;5.95;3.20;;;10.20;99.90;;;;;;5032232;28;20696;-73
2024/03/31 08:39:43;;;;;;;8.63;4.38;;;10.20;99.90;;;;;;5042219;28;20207;-73
2024/03/31 08:42:17;;;;;;;8.18;4.45;;;10.10;99.90;;;;;;5032545;28;20293;-73
2024/03/31 08:44:46;;;;;;;7.05;4.32;;;10.00;99.90;;;;;;5035748;28;20219;-73
2024/03/31 08:47:14;;;;;;;4.80;3.78;;;10.00;99.90;;;;;;5038311;28;20340;-73
2024/03/31 08:49:42;;;;;;;4.32;3.65;;;9.90;99.90;;;;;;5038011;28;20233;-74
2024/03/31 08:52:10;;;;;;;5.50;3.53;;;10.00;99.90;;;;;;5036167;28;21027;-73
2024/03/31 08:54:39;;;;;;;2.90;2.58;;;10.00;99.90;;;;;;5039601;28;20201;-72
2024/03/31 08:57:05;;;;;;;4.88;2.80;;;10.00;99.90;;;;;;5035284;28;20258;-73
2024/03/31 08:59:32;;;;;;;3.75;2.90;;;10.10;99.90;;;;;;5040774;28;20285;-75
2024/03/31 09:01:59;;;;;;;3.33;2.40;;;10.10;99.90;;;;;;5038451;28;20250;-73
2024/03/31 09:04:26;;;;;;;28.52;4.20;;;10.20;99.90;;;;;;5039659;28;20211;-73
2024/03/31 09:06:52;;;;;;;59.88;5.22;;;10.10;99.90;;;;;;5040645;28;20767;-74
2024/03/31 09:09:24;;;;;;;4.55;3.20;;;9.90;99.90;;;;;;5039622;28;20246;-73
2024/03/31 09:11:50;;;;;;;3.35;3.05;;;9.90;99.90;;;;;;5036519;28;20304;-73
2024/03/31 09:14:19;;;;;;;4.07;2.50;;;9.90;99.90;;;;;;5040279;28;20222;-74
2024/03/31 09:16:46;;;;;;;2.50;2.30;;;9.90;99.90;;;;;;5039125;28;20219;-74
2024/03/31 09:19:14;;;;;;;3.28;2.90;;;9.90;99.90;;;;;;5040610;28;20199;-74
2024/03/31 09:21:45;;;;;;;131.48;8.95;;;10.10;99.90;;;;;;5038956;28;20247;-74
2024/03/31 09:24:12;;;;;;;121.65;9.73;;;10.10;99.90;;;;;;5040197;28;20221;-74
2024/03/31 09:26:40;;;;;;;3.75;3.42;;;10.00;99.90;;;;;;5037461;28;20234;-74
2024/03/31 09:29:07;;;;;;;3.85;3.22;;;9.90;99.90;;;;;;5037383;28;20321;-74
2024/03/31 09:31:33;;;;;;;4.72;3.45;;;10.00;99.90;;;;;;5034870;28;20288;-74
2024/03/31 09:34:01;;;;;;;3.70;3.40;;;10.00;99.90;;;;;;5038587;28;20236;-74
2024/03/31 09:36:27;;;;;;;5.07;3.35;;;10.10;99.90;;;;;;5038216;28;20227;-75
2024/03/31 09:38:54;;;;;;;5.93;3.83;;;10.10;99.90;;;;;;5040876;28;20272;-74
2024/03/31 09:41:20;;;;;;;108.07;9.45;;;10.10;99.90;;;;;;5038466;28;20408;-74
2024/03/31 09:43:49;;;;;;;50.80;5.95;;;10.10;99.90;;;;;;5035211;28;20227;-75
2024/03/31 09:46:15;;;;;;;4.35;2.97;;;10.00;99.90;;;;;;5034687;28;20235;-75
2024/03/31 09:48:46;;;;;;;4.63;3.38;;;9.90;99.90;;;;;;5036814;28;20199;-74
2024/03/31 09:51:15;;;;;;;11.85;3.63;;;9.80;99.90;;;;;;5037072;28;20221;-74
2024/03/31 09:53:49;;;;;;;3.92;3.00;;;9.70;99.90;;;;;;5032409;28;20225;-74
2024/03/31 09:56:17;;;;;;;2.95;2.60;;;9.70;99.90;;;;;;5036357;28;20243;-75
2024/03/31 09:58:47;;;;;;;3.47;2.90;;;9.70;99.90;;;;;;5036616;28;20226;-74
2024/03/31 10:01:16;;;;;;;4.00;3.60;;;9.70;99.90;;;;;;5036326;28;20206;-73
2024/03/31 10:03:45;;;;;;;17.98;14.48;;;9.70;99.90;;;;;;5014990;28;20200;-74
2024/03/31 10:06:13;;;;;;;34.83;27.73;;;9.70;99.90;;;;;;5014542;28;21015;-75
2024/03/31 10:08:41;;;;;;;30.52;22.48;;;9.80;99.90;;;;;;5017572;28;20218;-74
2024/03/31 10:11:08;;;;;;;11.27;9.15;;;9.80;99.90;;;;;;5015413;28;20265;-74
2024/03/31 10:13:37;;;;;;;279.52;17.50;;;9.80;99.90;;;;;;5021113;28;20246;-74
2024/03/31 10:16:07;;;;;;;6.70;6.00;;;9.80;99.90;;;;;;5036486;28;20211;-76
2024/03/31 10:18:36;;;;;;;7.93;5.53;;;9.70;99.90;;;;;;5033784;28;20615;-76
2024/03/31 10:21:03;;;;;;;6.70;4.22;;;9.80;99.90;;;;;;5032095;28;20234;-75
2024/03/31 10:23:32;;;;;;;4.32;3.92;;;9.90;99.90;;;;;;5019878;28;20226;-75
2024/03/31 10:25:58;;;;;;;33.65;4.75;;;9.90;99.90;;;;;;5037109;28;20254;-74
2024/03/31 10:28:26;;;;;;;9.55;3.50;;;10.00;99.90;;;;;;5017609;28;20227;-75
2024/03/31 10:30:51;;;;;;;13.13;3.45;;;10.00;99.90;;;;;;5015641;28;20769;-74
2024/03/31 10:33:19;;;;;;;2.70;2.50;;;10.10;99.90;;;;;;5016980;28;20212;-75
2024/03/31 10:35:47;;;;;;;2.78;2.58;;;10.00;99.90;;;;;;5017028;28;20297;-74
2024/03/31 10:38:14;;;;;;;3.20;2.90;;;10.10;99.90;;;;;;5025705;28;20235;-74
2024/03/31 10:40:40;;;;;;;2.83;2.72;;;10.20;99.90;;;;;;5031372;28;20300;-74
2024/03/31 10:43:08;;;;;;;2.88;2.65;;;10.40;99.90;;;;;;5026422;28;20212;-75
2024/03/31 10:45:34;;;;;;;4.18;2.90;;;10.50;99.90;;;;;;5033534;28;20235;-74
2024/03/31 10:48:02;;;;;;;5.93;3.78;;;10.60;99.90;;;;;;5034683;28;20913;-74
2024/03/31 10:50:29;;;;;;;3.53;2.75;;;10.60;99.90;;;;;;5008305;28;20231;-74
2024/03/31 10:52:58;;;;;;;110.82;7.32;;;10.50;99.90;;;;;;5047082;28;20708;-76
2024/03/31 10:55:24;;;;;;;17.42;3.15;;;10.40;99.90;;;;;;5034286;28;20315;-74
2024/03/31 10:57:59;;;;;;;3.22;2.40;;;10.20;99.90;;;;;;5031304;28;20966;-75
2024/03/31 11:00:25;;;;;;;2.67;2.47;;;10.10;99.90;;;;;;5037160;28;20218;-75
2024/03/31 11:02:53;;;;;;;1.98;1.88;;;10.10;99.90;;;;;;5033332;28;20851;-74
2024/03/31 11:05:23;;;;;;;2.67;2.47;;;10.00;99.90;;;;;;5034499;28;20301;-74
2024/03/31 11:07:54;;;;;;;2.53;2.30;;;9.90;99.90;;;;;;5033780;28;20246;-74
2024/03/31 11:10:23;;;;;;;3.40;2.35;;;9.90;99.90;;;;;;5036064;28;20305;-74
2024/03/31 11:12:49;;;;;;;2.40;2.20;;;9.90;99.90;;;;;;5034804;28;20329;-74
2024/03/31 11:15:17;;;;;;;1.95;1.85;;;9.90;99.90;;;;;;5036089;28;21029;-74
2024/03/31 11:17:43;;;;;;;2.42;1.83;;;9.90;99.90;;;;;;5032008;28;20693;-74
2024/03/31 11:20:13;;;;;;;3.35;3.08;;;9.90;99.90;;;;;;5034017;28;20241;-74
2024/03/31 11:22:39;;;;;;;3.95;3.17;;;9.90;99.90;;;;;;5019869;28;20302;-74
2024/03/31 11:25:07;;;;;;;3.40;3.10;;;10.00;99.90;;;;;;5016886;28;20792;-74
2024/03/31 11:27:35;;;;;;;3.22;2.67;;;10.10;99.90;;;;;;5031634;28;20797;-74
2024/03/31 11:30:03;;;;;;;3.40;3.10;;;10.00;99.90;;;;;;5035341;28;20211;-74
2024/03/31 11:32:30;;;;;;;5.20;4.68;;;10.00;99.90;;;;;;5032791;28;20589;-74
2024/03/31 11:34:58;;;;;;;3.83;3.42;;;10.00;99.90;;;;;;5035050;28;20309;-74
2024/03/31 11:37:23;;;;;;;3.20;2.90;;;10.10;99.90;;;;;;5034917;28;20247;-74
2024/03/31 11:39:58;;;;;;;3.78;2.95;;;10.10;99.90;;;;;;5034915;28;20705;-75
2024/03/31 11:42:25;;;;;;;6.70;2.72;;;10.10;99.90;;;;;;5035237;28;20314;-75
2024/03/31 11:44:54;;;;;;;3.72;2.75;;;10.10;99.90;;;;;;5035168;28;20218;-74
2024/03/31 11:47:20;;;;;;;2.60;2.40;;;10.20;99.90;;;;;;5034668;28;20315;-75
2024/03/31 11:49:47;;;;;;;3.53;2.13;;;10.40;99.90;;;;;;5033548;28;20300;-75
2024/03/31 11:52:13;;;;;;;2.83;2.60;;;10.50;99.90;;;;;;5048299;28;20227;-75
2024/03/31 11:54:40;;;;;;;3.10;2.47;;;10.70;99.90;;;;;;5033693;28;20729;-74
2024/03/31 11:57:07;;;;;;;3.78;3.00;;;10.90;99.90;;;;;;5034303;28;20230;-74
2024/03/31 11:59:34;;;;;;;327.40;15.35;;;10.90;99.90;;;;;;5033892;28;20207;-73
2024/03/31 12:02:03;;;;;;;3.38;2.72;;;10.80;99.90;;;;;;5033954;28;20227;-74
2024/03/31 12:04:30;;;;;;;2.72;2.53;;;10.60;99.90;;;;;;5024388;28;20253;-74
2024/03/31 12:06:58;;;;;;;2.67;2.45;;;10.60;99.90;;;;;;5027087;28;20308;-74
2024/03/31 12:09:26;;;;;;;2.90;2.70;;;10.60;99.90;;;;;;5016086;28;20235;-74
2024/03/31 12:11:53;;;;;;;2.58;2.30;;;10.60;99.90;;;;;;5023245;28;20305;-74
2024/03/31 12:14:20;;;;;;;2.08;1.88;;;10.60;99.90;;;;;;5032984;28;20231;-74
2024/03/31 12:16:46;;;;;;;1.92;1.80;;;10.60;99.90;;;;;;5034997;28;20251;-74
2024/03/31 12:19:15;;;;;;;6.82;5.97;;;10.70;99.90;;;;;;5033846;28;20760;-73
2024/03/31 12:21:41;;;;;;;5.38;4.97;;;10.70;99.90;;;;;;5033340;28;20247;-73
2024/03/31 12:24:10;;;;;;;3.55;3.25;;;10.70;99.90;;;;;;5034845;28;20224;-74
2024/03/31 12:26:37;;;;;;;3.10;2.90;;;10.70;99.90;;;;;;5035300;28;20227;-74
2024/03/31 12:29:05;;;;;;;2.80;2.38;;;10.60;99.90;;;;;;5037925;28;20214;-73
2024/03/31 12:31:32;;;;;;;3.45;3.15;;;10.60;99.90;;;;;;5037995;28;20223;-73
2024/03/31 12:33:59;;;;;;;5.95;3.53;;;10.50;99.90;;;;;;5039453;28;20235;-74
2024/03/31 12:36:27;;;;;;;3.92;3.63;;;10.40;99.90;;;;;;5039234;28;20640;-74
2024/03/31 12:38:56;;;;;;;3.00;2.80;;;10.30;99.90;;;;;;5018888;28;20306;-73
2024/03/31 12:41:22;;;;;;;27.92;3.97;;;10.20;99.90;;;;;;5018110;28;20325;-74
2024/03/31 12:43:49;;;;;;;5.10;2.78;;;10.10;99.90;;;;;;5027519;28;20207;-74
2024/03/31 12:46:16;;;;;;;2.50;2.30;;;10.10;99.90;;;;;;5039344;28;20336;-73